Enchantment of the Seas — C6FZ7 — position and weather

sailwx.info

Track history (hours):
 
Tides and Currents Weather Stations Pressure Air Temp Water Temp Dewpoint Dewpoint Depression Visibility Wind Speed Wind Dir Waves Ship Positions

Enchantment of the Seas (Bahamas)

Last reported at 2017-Feb-19 10:00 UTC. Time now 2017-Feb-19 18:38 UTC.
Position N 25°18' W 077°24'.

Type: Passenger vessel. MMSI: 311733000.

Wind from 180 at 12 knots

Barometer 1015.0 mb
Air temperature 23.0 ° C
Dewpoint 21.5 ° C
Water temperature 28.0 ° C

Date/timePositionNaut miles runAvg speedWind from/ knotsBaromVisibWave heightAir tempDewpointWater temp
2017-Feb-19 10:00N 25°18' W 077°24'64 2.7 180 / 121015.0 23.021.528.0
2017-Feb-18 10:00N 26°00' W 078°18'7313.0 150 / 121015.0 23.019.927.0
2017-Feb-18 04:23N 26°00' W 079°39'1113.1
2017-Feb-18 03:33N 25°55' W 079°49'1413.6
2017-Feb-18 02:33N 25°47' W 080°02'8 8.2
2017-Feb-18 01:34N 25°47' W 080°11'1 1.0
2017-Feb-18 00:33N 25°47' W 080°10'0 0.0
2017-Feb-17 23:33N 25°47' W 080°10'0 0.0
2017-Feb-17 22:33N 25°47' W 080°10'0 0.0
2017-Feb-17 21:33N 25°47' W 080°10'0 0.0
2017-Feb-17 20:33N 25°47' W 080°10'0 0.0
2017-Feb-17 19:33N 25°47' W 080°10'0 0.0
2017-Feb-17 18:33N 25°47' W 080°10'2 1.6
2017-Feb-17 17:33N 25°46' W 080°08'8 7.9
2017-Feb-17 16:33N 25°52' W 080°03'1110.5
2017-Feb-17 15:33N 26°03' W 080°01'6 5.8
2017-Feb-17 14:30N 26°05' W 080°07'0 0.0
2017-Feb-17 13:30N 26°05' W 080°07'0 0.0
2017-Feb-17 12:30N 26°05' W 080°07'0 0.0
2017-Feb-17 11:33N 26°05' W 080°07'0 0.0
2017-Feb-17 10:34N 26°05' W 080°07'7 7.1
2017-Feb-17 09:34N 26°06' W 079°59'1110.5
2017-Feb-17 08:34N 26°07' W 079°48'5 9.2
2017-Feb-17 08:00N 26°06' W 079°42'510.9 360 / 151014.0 23.021.526.0
2017-Feb-17 07:34N 26°07' W 079°37'  
2017-Feb-14 11:11N 26°22' W 079°24'1 1.7
2017-Feb-14 10:32N 26°21' W 079°25'3 5.4
2017-Feb-14 10:00N 26°18' W 079°24'2 3.8 1016.0 23.021.528.0
2017-Feb-14 09:33N 26°19' W 079°25'3 1.8
2017-Feb-14 08:09N 26°17' W 079°26'1 1.8
2017-Feb-14 07:33N 26°16' W 079°26'2 1.8
2017-Feb-14 06:33N 26°14' W 079°26'0 0.4
2017-Feb-14 05:32N 26°14' W 079°26'1212.3
2017-Feb-14 04:33N 26°12' W 079°39'1313.1
2017-Feb-14 03:33N 26°09' W 079°53'1212.2
2017-Feb-14 02:33N 26°06' W 080°06'1 1.0
2017-Feb-14 01:27N 26°05' W 080°07'0 0.0
2017-Feb-14 00:27N 26°05' W 080°07'0 0.0
2017-Feb-13 23:30N 26°05' W 080°07'0 0.0
2017-Feb-13 22:30N 26°05' W 080°07'0 0.0
2017-Feb-13 21:33N 26°05' W 080°07'0 0.0
2017-Feb-13 20:33N 26°05' W 080°07'0 0.0
2017-Feb-13 19:33N 26°05' W 080°07'0 0.1
2017-Feb-13 18:33N 26°05' W 080°07'8 7.7
2017-Feb-13 17:33N 25°59' W 080°02'1111.5
2017-Feb-13 16:34N 25°48' W 080°03'7 7.2
2017-Feb-13 15:33N 25°47' W 080°11'0 0.3
2017-Feb-13 14:33N 25°47' W 080°11'0 0.0
2017-Feb-13 13:33N 25°47' W 080°11'0 0.0
2017-Feb-13 12:33N 25°47' W 080°11'0 0.0
2017-Feb-13 11:33N 25°47' W 080°11'0 0.4
2017-Feb-13 10:33N 25°47' W 080°10'9 9.0
2017-Feb-13 09:33N 25°47' W 080°00'1211.9
2017-Feb-13 08:32N 25°53' W 079°49'611.1
2017-Feb-13 08:00N 25°54' W 079°42'714.6 300 / 201019.0 23.021.528.0
2017-Feb-13 07:32N 25°59' W 079°37'116 3.7
2017-Feb-12 00:00N 25°42' W 077°30'47 3.3 080 / 191022.010.8 20.018.4
2017-Feb-11 10:00N 26°00' W 078°18'70 9.1 080 / 141024.0 21.019.428.0
2017-Feb-11 02:21N 26°01' W 079°36'910.9
2017-Feb-11 01:33N 25°57' W 079°44'4 6.3
2017-Feb-11 01:00N 25°54' W 079°42'1125.8 030 / 181023.010.8 20.018.4
2017-Feb-11 00:33N 25°51' W 079°54'9 9.4
2017-Feb-10 23:33N 25°46' W 080°03'7 7.1
2017-Feb-10 22:33N 25°47' W 080°11'0 0.0
2017-Feb-10 21:33N 25°47' W 080°11'0 0.0
2017-Feb-10 20:33N 25°47' W 080°11'0 0.0
2017-Feb-10 19:33N 25°47' W 080°11'0 0.0
2017-Feb-10 18:27N 25°47' W 080°11'0 0.0
2017-Feb-10 17:33N 25°47' W 080°11'0 0.0
2017-Feb-10 16:33N 25°47' W 080°11'0 0.0
2017-Feb-10 15:30N 25°47' W 080°11'0 0.0
2017-Feb-10 14:33N 25°47' W 080°11'0 0.0
2017-Feb-10 13:33N 25°47' W 080°11'0 0.0
2017-Feb-10 12:33N 25°47' W 080°11'2 1.7
2017-Feb-10 11:33N 25°46' W 080°09'9 9.4
2017-Feb-10 10:33N 25°46' W 079°58'1211.5
2017-Feb-10 09:33N 25°38' W 079°49'1414.3
2017-Feb-10 08:33N 25°24' W 079°51'4314.3
2017-Feb-10 05:33N 24°46' W 080°13'3421.8
2017-Feb-10 04:00N 24°24' W 080°42'34 2.1 310 / 121018.010.8 20.018.4
2017-Feb-09 11:33N 24°28' W 081°19'2314.6
2017-Feb-09 10:00N 24°30' W 080°54'   270 / 81015.0 22.020.528.0
Track history (hours):
 
Tides and Currents Weather Stations Pressure Air Temp Water Temp Dewpoint Dewpoint Depression Visibility Wind Speed Wind Dir Waves Ship Positions

Enchantment of the Seas (Bahamas)

Last reported at 2017-Feb-19 10:00 UTC. Time now 2017-Feb-19 18:38 UTC.
Position N 25°18' W 077°24'.

Type: Passenger vessel. MMSI: 311733000.

Wind from 180 at 12 knots

Barometer 1015.0 mb
Air temperature 23.0 ° C
Dewpoint 21.5 ° C
Water temperature 28.0 ° C

Date/timePositionNaut miles runAvg speedWind from/ knotsBaromVisibWave heightAir tempDewpointWater temp
2017-Feb-19 10:00N 25°18' W 077°24'64 2.7 180 / 121015.0 23.021.528.0
2017-Feb-18 10:00N 26°00' W 078°18'7313.0 150 / 121015.0 23.019.927.0
2017-Feb-18 04:23N 26°00' W 079°39'1113.1
2017-Feb-18 03:33N 25°55' W 079°49'1413.6
2017-Feb-18 02:33N 25°47' W 080°02'8 8.2
2017-Feb-18 01:34N 25°47' W 080°11'1 1.0
2017-Feb-18 00:33N 25°47' W 080°10'0 0.0
2017-Feb-17 23:33N 25°47' W 080°10'0 0.0
2017-Feb-17 22:33N 25°47' W 080°10'0 0.0
2017-Feb-17 21:33N 25°47' W 080°10'0 0.0
2017-Feb-17 20:33N 25°47' W 080°10'0 0.0
2017-Feb-17 19:33N 25°47' W 080°10'0 0.0
2017-Feb-17 18:33N 25°47' W 080°10'2 1.6
2017-Feb-17 17:33N 25°46' W 080°08'8 7.9
2017-Feb-17 16:33N 25°52' W 080°03'1110.5
2017-Feb-17 15:33N 26°03' W 080°01'6 5.8
2017-Feb-17 14:30N 26°05' W 080°07'0 0.0
2017-Feb-17 13:30N 26°05' W 080°07'0 0.0
2017-Feb-17 12:30N 26°05' W 080°07'0 0.0
2017-Feb-17 11:33N 26°05' W 080°07'0 0.0
2017-Feb-17 10:34N 26°05' W 080°07'7 7.1
2017-Feb-17 09:34N 26°06' W 079°59'1110.5
2017-Feb-17 08:34N 26°07' W 079°48'5 9.2
2017-Feb-17 08:00N 26°06' W 079°42'510.9 360 / 151014.0 23.021.526.0
2017-Feb-17 07:34N 26°07' W 079°37'  
2017-Feb-14 11:11N 26°22' W 079°24'1 1.7
2017-Feb-14 10:32N 26°21' W 079°25'3 5.4
2017-Feb-14 10:00N 26°18' W 079°24'2 3.8 1016.0 23.021.528.0
2017-Feb-14 09:33N 26°19' W 079°25'3 1.8
2017-Feb-14 08:09N 26°17' W 079°26'1 1.8
2017-Feb-14 07:33N 26°16' W 079°26'2 1.8
2017-Feb-14 06:33N 26°14' W 079°26'0 0.4
2017-Feb-14 05:32N 26°14' W 079°26'1212.3
2017-Feb-14 04:33N 26°12' W 079°39'1313.1
2017-Feb-14 03:33N 26°09' W 079°53'1212.2
2017-Feb-14 02:33N 26°06' W 080°06'1 1.0
2017-Feb-14 01:27N 26°05' W 080°07'0 0.0
2017-Feb-14 00:27N 26°05' W 080°07'0 0.0
2017-Feb-13 23:30N 26°05' W 080°07'0 0.0
2017-Feb-13 22:30N 26°05' W 080°07'0 0.0
2017-Feb-13 21:33N 26°05' W 080°07'0 0.0
2017-Feb-13 20:33N 26°05' W 080°07'0 0.0
2017-Feb-13 19:33N 26°05' W 080°07'0 0.1
2017-Feb-13 18:33N 26°05' W 080°07'8 7.7
2017-Feb-13 17:33N 25°59' W 080°02'1111.5
2017-Feb-13 16:34N 25°48' W 080°03'7 7.2
2017-Feb-13 15:33N 25°47' W 080°11'0 0.3
2017-Feb-13 14:33N 25°47' W 080°11'0 0.0
2017-Feb-13 13:33N 25°47' W 080°11'0 0.0
2017-Feb-13 12:33N 25°47' W 080°11'0 0.0
2017-Feb-13 11:33N 25°47' W 080°11'0 0.4
2017-Feb-13 10:33N 25°47' W 080°10'9 9.0
2017-Feb-13 09:33N 25°47' W 080°00'1211.9
2017-Feb-13 08:32N 25°53' W 079°49'611.1
2017-Feb-13 08:00N 25°54' W 079°42'714.6 300 / 201019.0 23.021.528.0
2017-Feb-13 07:32N 25°59' W 079°37'116 3.7
2017-Feb-12 00:00N 25°42' W 077°30'47 3.3 080 / 191022.010.8 20.018.4
2017-Feb-11 10:00N 26°00' W 078°18'70 9.1 080 / 141024.0 21.019.428.0
2017-Feb-11 02:21N 26°01' W 079°36'910.9
2017-Feb-11 01:33N 25°57' W 079°44'4 6.3
2017-Feb-11 01:00N 25°54' W 079°42'1125.8 030 / 181023.010.8 20.018.4
2017-Feb-11 00:33N 25°51' W 079°54'9 9.4
2017-Feb-10 23:33N 25°46' W 080°03'7 7.1
2017-Feb-10 22:33N 25°47' W 080°11'0 0.0
2017-Feb-10 21:33N 25°47' W 080°11'0 0.0
2017-Feb-10 20:33N 25°47' W 080°11'0 0.0
2017-Feb-10 19:33N 25°47' W 080°11'0 0.0
2017-Feb-10 18:27N 25°47' W 080°11'0 0.0
2017-Feb-10 17:33N 25°47' W 080°11'0 0.0
2017-Feb-10 16:33N 25°47' W 080°11'0 0.0
2017-Feb-10 15:30N 25°47' W 080°11'0 0.0
2017-Feb-10 14:33N 25°47' W 080°11'0 0.0
2017-Feb-10 13:33N 25°47' W 080°11'0 0.0
2017-Feb-10 12:33N 25°47' W 080°11'2 1.7
2017-Feb-10 11:33N 25°46' W 080°09'9 9.4
2017-Feb-10 10:33N 25°46' W 079°58'1211.5
2017-Feb-10 09:33N 25°38' W 079°49'1414.3
2017-Feb-10 08:33N 25°24' W 079°51'4314.3
2017-Feb-10 05:33N 24°46' W 080°13'3421.8
2017-Feb-10 04:00N 24°24' W 080°42'34 2.1 310 / 121018.010.8 20.018.4
2017-Feb-09 11:33N 24°28' W 081°19'2314.6
2017-Feb-09 10:00N 24°30' W 080°54'   270 / 81015.0 22.020.528.0

Dump ship's entire track history